SPEO2: Bird Creek, Sperry, OK

Data processed at Fri Jan 05 2018 23:08


All information presented herein is the property of the government of the United States of America and may be revised or deleted at any time without prior notice.
Dissemination of this information without the expressed written consent of the Public Affairs Office, Tulsa District U.S. Army Corps of Engineers is strictly prohibited.
These data are gathered electronically and, as presented, have not undergone any form of quality control. These data are not guaranteed to be valid or correct.
Go to home page.
Go to station list.

Upstream stations:

Downstream station:
Previous Day
Next Day
Current Day
    
SHEF ID:       SPEO2     Bird Creek near Sperry, OK
STATION TYPE:  

               PRECIP     STAGE  STAGE(2)  RIV-FLOW  WTR-TEMP   DIS-OXY        PH   CONDUCT  BAT-LOAD
                   in        ft        ft       cfs         F      mg/l        su   umho/cm      volt
              Ccp-Rev   Ccp-Rev   Ccp-Rev   Ccp-Rev   Ccp-Rev   Ccp-Rev   Ccp-Rev   Ccp-Rev   Ccp-Rev
(US/Central)
01/03 00:00      0.00      1.56      1.55        40     32.61     14.73      8.25       359     11.77
01/03 01:00      0.00      1.56      1.55        40     32.56     14.70      8.25       360     11.77
01/03 02:00      0.00      1.56      1.55        40     32.52     14.67      8.24       362     11.70
01/03 03:00      0.00      1.56      1.55        40     32.47     14.73      8.25       362     11.70
01/03 04:00      0.00      1.55      1.54        39     32.43     14.74      8.24       362     11.70
01/03 05:00      0.00      1.55      1.53        39     32.40     14.80      8.25       363     11.70
01/03 06:00      0.00      1.55      1.53        39     32.38     14.83      8.25       363     11.70
01/03 07:00      0.00      1.54      1.52        37     32.36     14.92      8.26       362     11.70
01/03 08:00      0.00      1.55      1.50        39     32.34     14.90      8.26       362     11.70
01/03 09:00      0.00      1.55      1.49        39     32.36     15.02      8.27       362     11.70
01/03 10:00      0.00      1.55      1.46        39     32.43     15.11      8.28       361     11.93
01/03 11:00      0.00      1.56      1.55        40     32.61     15.23      8.29       360     12.17
01/03 12:00      0.00      1.57      1.55        42     32.85     15.33      8.30       359     12.25
01/03 13:00      0.00      1.57      1.55        42     33.04     15.43      8.31       360     12.09
01/03 14:00      0.00      1.57      1.54        42     33.12     15.41      8.32       359     12.09
01/03 15:00      0.00      1.56      1.53        40     33.26     15.41      8.33       360     12.33
01/03 16:00      0.00      1.56      1.53        40     33.42     15.39      8.33       359     12.49
01/03 17:00      0.00      1.56      1.54        40     33.53     15.31      8.33       361     12.33
01/03 18:00      0.00      1.56      1.54        40     33.53     15.24      8.32       360     12.09
01/03 19:00      0.00      1.56      1.54        40     33.44     15.10      8.31       361     12.01
01/03 20:00      0.00      1.56      1.54        40     33.24     15.00      8.31       361     12.01
01/03 21:00      0.00      1.56      1.54        40     33.04     14.89      8.30       362     11.93
01/03 22:00      0.00      1.55      1.54        39     32.90     14.79      8.29       360     11.86
01/03 23:00      0.00      1.55      1.54        39     32.81     14.70      8.28       360     11.86